Steyning, United Kingdom
Current Conditions -  °F | °C
As of 5:50 PM on Thursday 30 Oct 2014 (Local Time) from EGKA Reporting Station
Clear Clear  
Wind Chill: 59°   Ceiling: Unl
Heat Index: 59°   Visibility: 4mi
Dew Point: 57°   Wind: 7mph
Humidity: 94%   Direction: 120°ESE
Pressure: 30.09"   Gusts: NA
Location:  50.89°N, 0.33°W
Report Text: EGKA 301750Z 12006KT 6000 NSC 15/14 Q1019
Loading
Personal Weather Stations






























Interactive Weather Map
Tropical Storm Tracking
New forecast layout! Learn more

10-Day Weather Forecast

Advertisements
Track Severe Weather on mobile